Heathrow, Florida
Current Conditions -  °F | °C
As of 11:53 PM on Wednesday 22 Oct 2014 (Local Time) from KSFB Reporting Station
Clear Clear  
Wind Chill: 18°   Ceiling: Unl
Heat Index: 18°   Visibility: 10mi
Dew Point: 14°   Wind: 7mph
Humidity: 75%   Direction: 20°NNE
Pressure: 30"   Gusts: NA
Location:  28.7595°N, 81.3431°W
Report Text: KSFB 230353Z AUTO 02006KT 10SM CLR 18/14 A3000 RMK AO2 SLP157 T01830139 TSNO
Loading
Personal Weather Stations






























Interactive Weather Map
Tropical Storm Tracking
New forecast layout! Learn more

10-Day Weather Forecast

Advertisements
Track Severe Weather on mobile